Vicentina, Brazil
Current Conditions -  °F | °C
As of 7:00 PM on Monday 24 Nov 2014 (Local Time) from SBCG Reporting Station
Few Clouds Few Clouds  
Wind Chill: 82°   Ceiling: Unl
Heat Index: 86°   Visibility: 6mi
Dew Point: 70°   Wind: 5mph
Humidity: 66%   Direction: 270°W
Pressure: 29.83"   Gusts: NA
Location:  22.41°S, 54.44°W
Report Text: SBCG 242200Z 27004KT 9999 FEW040 FEW045TCU 28/21 Q1010
Loading
Personal Weather Stations






























Interactive Weather Map New forecast layout! Learn more

10-Day Weather Forecast

Advertisements
Track Severe Weather on mobile